sensor_id;sensor_type;location;lat;lon;timestamp;pressure;altitude;pressure_sealevel;temperature;humidity
80118;BME280;69424;48.770;-1.564;2023-04-20T00:00:54;101697.53;;;10.30;77.26
80118;BME280;69424;48.770;-1.564;2023-04-20T00:03:24;101706.41;;;10.24;77.52
80118;BME280;69424;48.770;-1.564;2023-04-20T00:05:53;101705.96;;;10.21;77.11
80118;BME280;69424;48.770;-1.564;2023-04-20T00:08:21;101709.27;;;10.19;77.39
80118;BME280;69424;48.770;-1.564;2023-04-20T00:10:50;101709.05;;;10.17;77.15
80118;BME280;69424;48.770;-1.564;2023-04-20T00:13:18;101712.55;;;10.16;77.13
80118;BME280;69424;48.770;-1.564;2023-04-20T00:15:46;101716.27;;;10.16;76.95
80118;BME280;69424;48.770;-1.564;2023-04-20T00:18:15;101718.72;;;10.15;76.51
80118;BME280;69424;48.770;-1.564;2023-04-20T00:20:43;101721.10;;;10.12;76.71
80118;BME280;69424;48.770;-1.564;2023-04-20T00:23:11;101719.33;;;10.11;76.40
80118;BME280;69424;48.770;-1.564;2023-04-20T00:25:39;101716.14;;;10.11;76.49
80118;BME280;69424;48.770;-1.564;2023-04-20T00:28:07;101710.82;;;10.04;76.42
80118;BME280;69424;48.770;-1.564;2023-04-20T00:30:35;101709.52;;;10.01;76.25
80118;BME280;69424;48.770;-1.564;2023-04-20T00:33:04;101705.11;;;10.01;76.28
80118;BME280;69424;48.770;-1.564;2023-04-20T00:35:34;101705.10;;;10.02;76.34
80118;BME280;69424;48.770;-1.564;2023-04-20T00:38:02;101704.73;;;10.01;76.16
80118;BME280;69424;48.770;-1.564;2023-04-20T00:40:30;101708.32;;;10.02;76.26
80118;BME280;69424;48.770;-1.564;2023-04-20T00:43:08;101702.64;;;10.02;76.14
80118;BME280;69424;48.770;-1.564;2023-04-20T00:45:37;101702.33;;;9.97;76.21
80118;BME280;69424;48.770;-1.564;2023-04-20T00:48:05;101698.98;;;9.90;75.92
80118;BME280;69424;48.770;-1.564;2023-04-20T00:50:34;101690.83;;;9.83;76.23
80118;BME280;69424;48.770;-1.564;2023-04-20T00:53:07;101689.29;;;9.78;76.00
80118;BME280;69424;48.770;-1.564;2023-04-20T00:55:36;101681.61;;;9.75;76.19
80118;BME280;69424;48.770;-1.564;2023-04-20T00:58:05;101680.33;;;9.74;76.04
80118;BME280;69424;48.770;-1.564;2023-04-20T01:00:33;101679.10;;;9.74;75.98
80118;BME280;69424;48.770;-1.564;2023-04-20T01:03:03;101675.14;;;9.71;76.11
80118;BME280;69424;48.770;-1.564;2023-04-20T01:05:32;101680.48;;;9.66;76.50
80118;BME280;69424;48.770;-1.564;2023-04-20T01:08:01;101679.40;;;9.60;76.60
80118;BME280;69424;48.770;-1.564;2023-04-20T01:10:29;101678.17;;;9.53;76.76
80118;BME280;69424;48.770;-1.564;2023-04-20T01:12:58;101682.15;;;9.50;76.60
80118;BME280;69424;48.770;-1.564;2023-04-20T01:15:26;101678.98;;;9.50;76.46
80118;BME280;69424;48.770;-1.564;2023-04-20T01:17:54;101674.23;;;9.51;77.15
80118;BME280;69424;48.770;-1.564;2023-04-20T01:20:25;101672.46;;;9.51;76.84
80118;BME280;69424;48.770;-1.564;2023-04-20T01:22:53;101676.73;;;9.52;76.68
80118;BME280;69424;48.770;-1.564;2023-04-20T01:25:21;101673.16;;;9.51;76.83
80118;BME280;69424;48.770;-1.564;2023-04-20T01:27:50;101674.48;;;9.47;77.10
80118;BME280;69424;48.770;-1.564;2023-04-20T01:30:18;101674.52;;;9.43;77.00
80118;BME280;69424;48.770;-1.564;2023-04-20T01:32:46;101673.64;;;9.36;76.81
80118;BME280;69424;48.770;-1.564;2023-04-20T01:35:15;101672.52;;;9.34;76.40
80118;BME280;69424;48.770;-1.564;2023-04-20T01:37:45;101671.08;;;9.33;76.69
80118;BME280;69424;48.770;-1.564;2023-04-20T01:40:13;101670.90;;;9.33;76.75
80118;BME280;69424;48.770;-1.564;2023-04-20T01:42:41;101673.01;;;9.33;76.62
80118;BME280;69424;48.770;-1.564;2023-04-20T01:45:10;101671.98;;;9.34;76.51
80118;BME280;69424;48.770;-1.564;2023-04-20T01:47:38;101672.86;;;9.34;76.71
80118;BME280;69424;48.770;-1.564;2023-04-20T01:50:07;101673.38;;;9.33;75.97
80118;BME280;69424;48.770;-1.564;2023-04-20T01:52:35;101671.99;;;9.28;76.30
80118;BME280;69424;48.770;-1.564;2023-04-20T01:55:04;101671.29;;;9.23;76.29
80118;BME280;69424;48.770;-1.564;2023-04-20T01:57:32;101667.50;;;9.20;76.48
80118;BME280;69424;48.770;-1.564;2023-04-20T02:00:01;101666.75;;;9.18;76.22
80118;BME280;69424;48.770;-1.564;2023-04-20T02:02:40;101663.11;;;9.15;76.26
80118;BME280;69424;48.770;-1.564;2023-04-20T02:05:09;101662.48;;;9.12;76.17
80118;BME280;69424;48.770;-1.564;2023-04-20T02:07:38;101663.05;;;9.06;76.31
80118;BME280;69424;48.770;-1.564;2023-04-20T02:10:07;101662.66;;;8.99;76.37
80118;BME280;69424;48.770;-1.564;2023-04-20T02:12:35;101664.88;;;8.91;76.50
80118;BME280;69424;48.770;-1.564;2023-04-20T02:15:05;101667.84;;;8.79;76.78
80118;BME280;69424;48.770;-1.564;2023-04-20T02:17:36;101669.51;;;8.70;76.94
80118;BME280;69424;48.770;-1.564;2023-04-20T02:20:05;101672.67;;;8.64;77.04
80118;BME280;69424;48.770;-1.564;2023-04-20T02:22:35;101678.05;;;8.61;77.46
80118;BME280;69424;48.770;-1.564;2023-04-20T02:25:05;101678.11;;;8.57;77.17
80118;BME280;69424;48.770;-1.564;2023-04-20T02:27:33;101681.59;;;8.56;77.19
80118;BME280;69424;48.770;-1.564;2023-04-20T02:30:05;101676.59;;;8.54;76.74
80118;BME280;69424;48.770;-1.564;2023-04-20T02:32:33;101675.84;;;8.53;76.93
80118;BME280;69424;48.770;-1.564;2023-04-20T02:35:02;101673.55;;;8.47;77.07
80118;BME280;69424;48.770;-1.564;2023-04-20T02:37:33;101672.19;;;8.39;77.36
80118;BME280;69424;48.770;-1.564;2023-04-20T02:40:02;101675.79;;;8.36;76.99
80118;BME280;69424;48.770;-1.564;2023-04-20T02:42:31;101676.89;;;8.32;77.20
80118;BME280;69424;48.770;-1.564;2023-04-20T02:45:01;101679.23;;;8.28;77.19
80118;BME280;69424;48.770;-1.564;2023-04-20T02:47:30;101679.96;;;8.29;76.99
80118;BME280;69424;48.770;-1.564;2023-04-20T02:49:58;101682.34;;;8.31;76.80
80118;BME280;69424;48.770;-1.564;2023-04-20T02:52:27;101682.52;;;8.32;76.94
80118;BME280;69424;48.770;-1.564;2023-04-20T02:54:56;101678.38;;;8.29;76.73
80118;BME280;69424;48.770;-1.564;2023-04-20T02:57:25;101675.35;;;8.23;76.71
80118;BME280;69424;48.770;-1.564;2023-04-20T02:59:54;101670.98;;;8.13;76.42
80118;BME280;69424;48.770;-1.564;2023-04-20T03:02:35;101670.02;;;8.06;76.47
80118;BME280;69424;48.770;-1.564;2023-04-20T03:05:05;101670.86;;;8.04;76.00
80118;BME280;69424;48.770;-1.564;2023-04-20T03:07:40;101669.25;;;8.03;76.01
80118;BME280;69424;48.770;-1.564;2023-04-20T03:10:10;101669.98;;;8.05;75.64
80118;BME280;69424;48.770;-1.564;2023-04-20T03:12:51;101672.29;;;8.05;75.42
80118;BME280;69424;48.770;-1.564;2023-04-20T03:15:42;101672.23;;;8.03;75.72
80118;BME280;69424;48.770;-1.564;2023-04-20T03:18:33;101670.00;;;8.00;75.46
80118;BME280;69424;48.770;-1.564;2023-04-20T03:21:01;101666.45;;;7.94;75.60
80118;BME280;69424;48.770;-1.564;2023-04-20T03:23:31;101667.94;;;7.86;75.65
80118;BME280;69424;48.770;-1.564;2023-04-20T03:25:59;101662.83;;;7.80;75.69
80118;BME280;69424;48.770;-1.564;2023-04-20T03:28:49;101660.23;;;7.77;75.70
80118;BME280;69424;48.770;-1.564;2023-04-20T03:31:20;101662.11;;;7.76;75.78
80118;BME280;69424;48.770;-1.564;2023-04-20T03:33:49;101665.77;;;7.75;75.78
80118;BME280;69424;48.770;-1.564;2023-04-20T03:36:18;101667.20;;;7.75;75.38
80118;BME280;69424;48.770;-1.564;2023-04-20T03:38:46;101667.53;;;7.74;75.32
80118;BME280;69424;48.770;-1.564;2023-04-20T03:41:14;101669.34;;;7.71;75.09
80118;BME280;69424;48.770;-1.564;2023-04-20T03:43:43;101668.15;;;7.67;74.94
80118;BME280;69424;48.770;-1.564;2023-04-20T03:46:11;101664.06;;;7.61;74.87
80118;BME280;69424;48.770;-1.564;2023-04-20T03:48:39;101664.39;;;7.55;75.01
80118;BME280;69424;48.770;-1.564;2023-04-20T03:51:07;101660.54;;;7.51;74.70
80118;BME280;69424;48.770;-1.564;2023-04-20T03:53:38;101656.96;;;7.49;74.66
80118;BME280;69424;48.770;-1.564;2023-04-20T03:56:07;101651.46;;;7.48;74.98
80118;BME280;69424;48.770;-1.564;2023-04-20T03:58:36;101653.70;;;7.47;74.81
80118;BME280;69424;48.770;-1.564;2023-04-20T04:01:11;101656.45;;;7.45;74.83
80118;BME280;69424;48.770;-1.564;2023-04-20T04:03:43;101662.95;;;7.40;74.56
80118;BME280;69424;48.770;-1.564;2023-04-20T04:06:12;101665.66;;;7.32;74.47
80118;BME280;69424;48.770;-1.564;2023-04-20T04:08:40;101659.59;;;7.25;74.46
80118;BME280;69424;48.770;-1.564;2023-04-20T04:11:08;101659.64;;;7.17;74.35
80118;BME280;69424;48.770;-1.564;2023-04-20T04:13:36;101661.75;;;7.12;74.29
80118;BME280;69424;48.770;-1.564;2023-04-20T04:16:06;101661.20;;;7.11;74.23
80118;BME280;69424;48.770;-1.564;2023-04-20T04:18:35;101662.25;;;7.11;74.25
80118;BME280;69424;48.770;-1.564;2023-04-20T04:21:08;101661.42;;;7.12;73.90
80118;BME280;69424;48.770;-1.564;2023-04-20T04:23:38;101663.48;;;7.11;73.99
80118;BME280;69424;48.770;-1.564;2023-04-20T04:26:13;101660.48;;;7.07;73.84
80118;BME280;69424;48.770;-1.564;2023-04-20T04:28:43;101659.64;;;7.03;74.08
80118;BME280;69424;48.770;-1.564;2023-04-20T04:31:19;101659.59;;;6.97;73.68
80118;BME280;69424;48.770;-1.564;2023-04-20T04:33:48;101660.59;;;6.91;73.78
80118;BME280;69424;48.770;-1.564;2023-04-20T04:36:29;101654.88;;;6.88;73.57
80118;BME280;69424;48.770;-1.564;2023-04-20T04:38:57;101654.88;;;6.89;73.31
80118;BME280;69424;48.770;-1.564;2023-04-20T04:41:26;101655.45;;;6.90;73.03
80118;BME280;69424;48.770;-1.564;2023-04-20T04:44:03;101657.13;;;6.92;72.92
80118;BME280;69424;48.770;-1.564;2023-04-20T04:46:34;101658.13;;;6.91;72.92
80118;BME280;69424;48.770;-1.564;2023-04-20T04:49:03;101662.56;;;6.87;72.78
80118;BME280;69424;48.770;-1.564;2023-04-20T04:51:32;101666.20;;;6.82;72.72
80118;BME280;69424;48.770;-1.564;2023-04-20T04:54:00;101665.41;;;6.75;72.72
80118;BME280;69424;48.770;-1.564;2023-04-20T04:56:28;101674.83;;;6.69;72.74
80118;BME280;69424;48.770;-1.564;2023-04-20T04:58:57;101678.19;;;6.60;72.92
80118;BME280;69424;48.770;-1.564;2023-04-20T05:01:25;101677.48;;;6.55;73.02
80118;BME280;69424;48.770;-1.564;2023-04-20T05:03:53;101677.09;;;6.55;72.85
80118;BME280;69424;48.770;-1.564;2023-04-20T05:06:21;101681.73;;;6.56;72.57
80118;BME280;69424;48.770;-1.564;2023-04-20T05:08:49;101680.48;;;6.60;72.53
80118;BME280;69424;48.770;-1.564;2023-04-20T05:11:17;101684.36;;;6.60;72.33
80118;BME280;69424;48.770;-1.564;2023-04-20T05:13:45;101680.05;;;6.58;72.56
80118;BME280;69424;48.770;-1.564;2023-04-20T05:16:15;101678.48;;;6.54;72.55
80118;BME280;69424;48.770;-1.564;2023-04-20T05:18:43;101683.20;;;6.49;72.57
80118;BME280;69424;48.770;-1.564;2023-04-20T05:21:11;101682.61;;;6.44;72.77
80118;BME280;69424;48.770;-1.564;2023-04-20T05:23:39;101683.29;;;6.38;72.68
80118;BME280;69424;48.770;-1.564;2023-04-20T05:26:07;101689.19;;;6.36;72.98
80118;BME280;69424;48.770;-1.564;2023-04-20T05:28:36;101689.79;;;6.38;72.69
80118;BME280;69424;48.770;-1.564;2023-04-20T05:31:04;101692.95;;;6.42;72.80
80118;BME280;69424;48.770;-1.564;2023-04-20T05:33:33;101693.66;;;6.47;72.71
80118;BME280;69424;48.770;-1.564;2023-04-20T05:36:01;101695.04;;;6.51;72.49
80118;BME280;69424;48.770;-1.564;2023-04-20T05:38:29;101698.08;;;6.52;72.32
80118;BME280;69424;48.770;-1.564;2023-04-20T05:40:57;101698.98;;;6.53;72.30
80118;BME280;69424;48.770;-1.564;2023-04-20T05:43:25;101698.41;;;6.52;72.15
80118;BME280;69424;48.770;-1.564;2023-04-20T05:45:54;101696.94;;;6.50;72.11
80118;BME280;69424;48.770;-1.564;2023-04-20T05:48:22;101699.45;;;6.47;72.23
80118;BME280;69424;48.770;-1.564;2023-04-20T05:50:50;101698.27;;;6.44;72.26
80118;BME280;69424;48.770;-1.564;2023-04-20T05:53:18;101698.63;;;6.44;72.23
80118;BME280;69424;48.770;-1.564;2023-04-20T05:55:46;101702.11;;;6.48;72.24
80118;BME280;69424;48.770;-1.564;2023-04-20T05:58:15;101706.70;;;6.52;71.97
80118;BME280;69424;48.770;-1.564;2023-04-20T06:00:43;101701.61;;;6.57;71.91
80118;BME280;69424;48.770;-1.564;2023-04-20T06:03:11;101704.45;;;6.62;71.83
80118;BME280;69424;48.770;-1.564;2023-04-20T06:05:40;101703.27;;;6.64;71.81
80118;BME280;69424;48.770;-1.564;2023-04-20T06:08:08;101703.31;;;6.64;71.60
80118;BME280;69424;48.770;-1.564;2023-04-20T06:10:36;101707.88;;;6.65;71.47
80118;BME280;69424;48.770;-1.564;2023-04-20T06:13:05;101708.47;;;6.65;71.48
80118;BME280;69424;48.770;-1.564;2023-04-20T06:15:33;101709.04;;;6.67;71.59
80118;BME280;69424;48.770;-1.564;2023-04-20T06:18:01;101710.52;;;6.86;71.31
80118;BME280;69424;48.770;-1.564;2023-04-20T06:20:29;101711.99;;;7.24;70.64
80118;BME280;69424;48.770;-1.564;2023-04-20T06:22:57;101709.43;;;7.75;69.68
80118;BME280;69424;48.770;-1.564;2023-04-20T06:25:26;101703.13;;;8.46;67.98
80118;BME280;69424;48.770;-1.564;2023-04-20T06:27:54;101697.57;;;9.10;65.91
80118;BME280;69424;48.770;-1.564;2023-04-20T06:30:22;101692.31;;;9.67;64.80
80118;BME280;69424;48.770;-1.564;2023-04-20T06:32:50;101693.11;;;10.09;62.32
80118;BME280;69424;48.770;-1.564;2023-04-20T06:35:19;101688.61;;;10.33;62.48
80118;BME280;69424;48.770;-1.564;2023-04-20T06:37:47;101688.70;;;10.43;61.92
80118;BME280;69424;48.770;-1.564;2023-04-20T06:40:15;101687.02;;;10.39;61.75
80118;BME280;69424;48.770;-1.564;2023-04-20T06:42:44;101688.48;;;10.28;60.65
80118;BME280;69424;48.770;-1.564;2023-04-20T06:45:12;101691.30;;;10.07;60.41
80118;BME280;69424;48.770;-1.564;2023-04-20T06:47:40;101693.94;;;9.94;60.76
80118;BME280;69424;48.770;-1.564;2023-04-20T06:50:09;101695.88;;;9.81;61.04
80118;BME280;69424;48.770;-1.564;2023-04-20T06:52:38;101695.70;;;9.74;60.37
80118;BME280;69424;48.770;-1.564;2023-04-20T06:55:08;101694.77;;;9.66;59.97
80118;BME280;69424;48.770;-1.564;2023-04-20T06:57:36;101694.56;;;9.58;60.59
80118;BME280;69424;48.770;-1.564;2023-04-20T07:00:07;101698.55;;;9.56;59.85
80118;BME280;69424;48.770;-1.564;2023-04-20T07:02:49;101688.86;;;9.50;59.88
80118;BME280;69424;48.770;-1.564;2023-04-20T07:05:18;101688.24;;;9.47;60.20
80118;BME280;69424;48.770;-1.564;2023-04-20T07:07:46;101689.72;;;9.50;60.01
80118;BME280;69424;48.770;-1.564;2023-04-20T07:10:14;101689.11;;;9.53;58.97
80118;BME280;69424;48.770;-1.564;2023-04-20T07:12:43;101686.75;;;9.57;58.98
80118;BME280;69424;48.770;-1.564;2023-04-20T07:15:11;101689.63;;;9.59;58.56
80118;BME280;69424;48.770;-1.564;2023-04-20T07:17:39;101691.89;;;9.58;58.36
80118;BME280;69424;48.770;-1.564;2023-04-20T07:20:08;101693.88;;;9.59;58.73
80118;BME280;69424;48.770;-1.564;2023-04-20T07:22:37;101688.30;;;9.62;58.89
80118;BME280;69424;48.770;-1.564;2023-04-20T07:25:07;101687.41;;;9.68;58.69
80118;BME280;69424;48.770;-1.564;2023-04-20T07:27:37;101686.58;;;9.69;58.05
80118;BME280;69424;48.770;-1.564;2023-04-20T07:30:07;101685.07;;;9.73;58.06
80118;BME280;69424;48.770;-1.564;2023-04-20T07:32:37;101683.02;;;9.82;58.32
80118;BME280;69424;48.770;-1.564;2023-04-20T07:35:05;101682.21;;;9.91;57.62
80118;BME280;69424;48.770;-1.564;2023-04-20T07:37:34;101685.40;;;9.98;57.26
80118;BME280;69424;48.770;-1.564;2023-04-20T07:40:03;101680.02;;;10.02;57.68
80118;BME280;69424;48.770;-1.564;2023-04-20T07:42:34;101679.23;;;10.13;57.43
80118;BME280;69424;48.770;-1.564;2023-04-20T07:45:06;101671.98;;;10.19;56.42
80118;BME280;69424;48.770;-1.564;2023-04-20T07:47:36;101678.13;;;10.25;56.09
80118;BME280;69424;48.770;-1.564;2023-04-20T07:50:05;101674.89;;;10.29;56.64
80118;BME280;69424;48.770;-1.564;2023-04-20T07:52:34;101677.59;;;10.37;55.87
80118;BME280;69424;48.770;-1.564;2023-04-20T07:55:03;101673.88;;;10.44;55.60
80118;BME280;69424;48.770;-1.564;2023-04-20T07:57:33;101672.27;;;10.51;55.25
80118;BME280;69424;48.770;-1.564;2023-04-20T08:00:01;101662.77;;;10.60;55.52
80118;BME280;69424;48.770;-1.564;2023-04-20T08:02:39;101664.02;;;10.69;54.99
80118;BME280;69424;48.770;-1.564;2023-04-20T08:05:08;101665.88;;;10.80;54.92
80118;BME280;69424;48.770;-1.564;2023-04-20T08:07:39;101666.59;;;10.89;54.73
80118;BME280;69424;48.770;-1.564;2023-04-20T08:10:07;101672.09;;;10.97;53.99
80118;BME280;69424;48.770;-1.564;2023-04-20T08:12:38;101666.06;;;11.04;53.95
80118;BME280;69424;48.770;-1.564;2023-04-20T08:15:07;101669.05;;;11.11;53.58
80118;BME280;69424;48.770;-1.564;2023-04-20T08:17:36;101669.41;;;11.20;53.76
80118;BME280;69424;48.770;-1.564;2023-04-20T08:20:04;101671.98;;;11.32;53.36
80118;BME280;69424;48.770;-1.564;2023-04-20T08:22:33;101673.34;;;11.47;53.89
80118;BME280;69424;48.770;-1.564;2023-04-20T08:25:01;101675.07;;;11.63;53.18
80118;BME280;69424;48.770;-1.564;2023-04-20T08:27:29;101683.27;;;11.75;52.52
80118;BME280;69424;48.770;-1.564;2023-04-20T08:29:58;101681.81;;;11.83;51.23
80118;BME280;69424;48.770;-1.564;2023-04-20T08:32:27;101687.52;;;11.93;51.17
80118;BME280;69424;48.770;-1.564;2023-04-20T08:34:55;101692.69;;;12.03;50.98
80118;BME280;69424;48.770;-1.564;2023-04-20T08:37:24;101693.86;;;12.10;49.78
80118;BME280;69424;48.770;-1.564;2023-04-20T08:39:52;101686.33;;;12.14;50.24
80118;BME280;69424;48.770;-1.564;2023-04-20T08:42:20;101683.13;;;12.24;49.96
80118;BME280;69424;48.770;-1.564;2023-04-20T08:44:49;101679.36;;;12.32;49.92
80118;BME280;69424;48.770;-1.564;2023-04-20T08:47:19;101681.61;;;12.40;49.18
80118;BME280;69424;48.770;-1.564;2023-04-20T08:49:52;101679.80;;;12.48;49.68
80118;BME280;69424;48.770;-1.564;2023-04-20T08:52:21;101678.77;;;12.61;49.39
80118;BME280;69424;48.770;-1.564;2023-04-20T08:54:49;101683.54;;;12.71;49.19
80118;BME280;69424;48.770;-1.564;2023-04-20T08:57:24;101684.58;;;12.82;49.14
80118;BME280;69424;48.770;-1.564;2023-04-20T08:59:54;101681.69;;;12.90;48.48
80118;BME280;69424;48.770;-1.564;2023-04-20T09:02:23;101686.23;;;12.98;48.47
80118;BME280;69424;48.770;-1.564;2023-04-20T09:05:02;101685.60;;;13.03;48.33
80118;BME280;69424;48.770;-1.564;2023-04-20T09:07:32;101689.42;;;13.10;48.51
80118;BME280;69424;48.770;-1.564;2023-04-20T09:10:00;101690.61;;;13.19;48.50
80118;BME280;69424;48.770;-1.564;2023-04-20T09:12:39;101687.22;;;13.30;48.44
80118;BME280;69424;48.770;-1.564;2023-04-20T09:15:09;101687.20;;;13.42;47.93
80118;BME280;69424;48.770;-1.564;2023-04-20T09:17:39;101682.88;;;13.52;47.73
80118;BME280;69424;48.770;-1.564;2023-04-20T09:20:08;101684.16;;;13.54;47.46
80118;BME280;69424;48.770;-1.564;2023-04-20T09:22:39;101679.03;;;13.57;47.66
80118;BME280;69424;48.770;-1.564;2023-04-20T09:25:15;101675.53;;;13.61;47.57
80118;BME280;69424;48.770;-1.564;2023-04-20T09:28:00;101678.61;;;13.65;47.35
80118;BME280;69424;48.770;-1.564;2023-04-20T09:30:43;101676.31;;;13.67;46.24
80118;BME280;69424;48.770;-1.564;2023-04-20T09:33:12;101681.63;;;13.66;46.37
80118;BME280;69424;48.770;-1.564;2023-04-20T09:35:43;101678.33;;;13.73;47.02
80118;BME280;69424;48.770;-1.564;2023-04-20T09:38:15;101672.22;;;13.84;47.54
80118;BME280;69424;48.770;-1.564;2023-04-20T09:40:43;101671.30;;;13.99;47.52
80118;BME280;69424;48.770;-1.564;2023-04-20T09:43:18;101675.88;;;14.12;46.14
80118;BME280;69424;48.770;-1.564;2023-04-20T09:45:47;101664.35;;;14.14;45.96
80118;BME280;69424;48.770;-1.564;2023-04-20T09:48:17;101664.04;;;14.21;46.58
80118;BME280;69424;48.770;-1.564;2023-04-20T09:50:47;101661.60;;;14.25;46.24
80118;BME280;69424;48.770;-1.564;2023-04-20T09:53:18;101660.57;;;14.32;46.05
80118;BME280;69424;48.770;-1.564;2023-04-20T09:55:48;101662.96;;;14.40;45.84
80118;BME280;69424;48.770;-1.564;2023-04-20T09:58:18;101656.64;;;14.51;45.22
80118;BME280;69424;48.770;-1.564;2023-04-20T10:00:48;101662.20;;;14.58;44.58
80118;BME280;69424;48.770;-1.564;2023-04-20T10:03:18;101670.82;;;14.65;44.75
80118;BME280;69424;48.770;-1.564;2023-04-20T10:05:47;101670.73;;;14.76;44.96
80118;BME280;69424;48.770;-1.564;2023-04-20T10:08:17;101669.73;;;14.88;45.10
80118;BME280;69424;48.770;-1.564;2023-04-20T10:10:49;101670.00;;;15.02;44.88
80118;BME280;69424;48.770;-1.564;2023-04-20T10:13:18;101676.47;;;15.15;42.94
80118;BME280;69424;48.770;-1.564;2023-04-20T10:15:48;101671.88;;;15.23;42.78
80118;BME280;69424;48.770;-1.564;2023-04-20T10:18:21;101678.33;;;15.31;41.63
80118;BME280;69424;48.770;-1.564;2023-04-20T10:21:05;101676.77;;;15.38;41.00
80118;BME280;69424;48.770;-1.564;2023-04-20T10:23:47;101678.73;;;15.45;40.81
80118;BME280;69424;48.770;-1.564;2023-04-20T10:26:15;101678.05;;;15.49;40.30
80118;BME280;69424;48.770;-1.564;2023-04-20T10:28:44;101675.55;;;15.49;39.28
80118;BME280;69424;48.770;-1.564;2023-04-20T10:31:13;101676.46;;;15.52;39.54
80118;BME280;69424;48.770;-1.564;2023-04-20T10:33:56;101673.08;;;15.55;38.56
80118;BME280;69424;48.770;-1.564;2023-04-20T10:36:29;101673.09;;;15.57;38.23
80118;BME280;69424;48.770;-1.564;2023-04-20T10:38:59;101679.50;;;15.57;38.68
80118;BME280;69424;48.770;-1.564;2023-04-20T10:41:32;101680.90;;;15.53;38.06
80118;BME280;69424;48.770;-1.564;2023-04-20T10:44:07;101678.95;;;15.54;39.07
80118;BME280;69424;48.770;-1.564;2023-04-20T10:46:35;101665.78;;;15.62;38.33
80118;BME280;69424;48.770;-1.564;2023-04-20T10:49:04;101668.64;;;15.65;38.44
80118;BME280;69424;48.770;-1.564;2023-04-20T10:51:32;101653.13;;;15.65;38.96
80118;BME280;69424;48.770;-1.564;2023-04-20T10:54:05;101649.23;;;15.73;40.10
80118;BME280;69424;48.770;-1.564;2023-04-20T10:56:55;101649.65;;;15.89;40.46
80118;BME280;69424;48.770;-1.564;2023-04-20T10:59:24;101641.65;;;16.02;40.77
80118;BME280;69424;48.770;-1.564;2023-04-20T11:01:52;101636.64;;;16.08;40.33
80118;BME280;69424;48.770;-1.564;2023-04-20T11:04:32;101635.23;;;16.19;40.83
80118;BME280;69424;48.770;-1.564;2023-04-20T11:07:09;101630.58;;;16.25;38.83
80118;BME280;69424;48.770;-1.564;2023-04-20T11:09:38;101627.55;;;16.22;38.31
80118;BME280;69424;48.770;-1.564;2023-04-20T11:12:08;101626.30;;;16.18;37.91
80118;BME280;69424;48.770;-1.564;2023-04-20T11:14:53;101633.44;;;16.16;37.84
80118;BME280;69424;48.770;-1.564;2023-04-20T11:17:35;101620.77;;;16.22;37.58
80118;BME280;69424;48.770;-1.564;2023-04-20T11:20:06;101625.77;;;16.35;37.29
80118;BME280;69424;48.770;-1.564;2023-04-20T11:22:39;101623.08;;;16.37;36.90
80118;BME280;69424;48.770;-1.564;2023-04-20T11:25:09;101620.77;;;16.34;37.59
80118;BME280;69424;48.770;-1.564;2023-04-20T11:27:38;101621.29;;;16.32;37.29
80118;BME280;69424;48.770;-1.564;2023-04-20T11:30:08;101618.61;;;16.36;37.58
80118;BME280;69424;48.770;-1.564;2023-04-20T11:32:37;101625.05;;;16.45;36.79
80118;BME280;69424;48.770;-1.564;2023-04-20T11:35:09;101622.00;;;16.50;36.38
80118;BME280;69424;48.770;-1.564;2023-04-20T11:37:50;101625.02;;;16.52;35.83
80118;BME280;69424;48.770;-1.564;2023-04-20T11:40:20;101620.56;;;16.51;36.01
80118;BME280;69424;48.770;-1.564;2023-04-20T11:42:48;101619.48;;;16.49;35.91
80118;BME280;69424;48.770;-1.564;2023-04-20T11:45:17;101617.01;;;16.52;35.88
80118;BME280;69424;48.770;-1.564;2023-04-20T11:47:46;101616.46;;;16.49;35.32
80118;BME280;69424;48.770;-1.564;2023-04-20T11:50:15;101612.17;;;16.50;35.96
80118;BME280;69424;48.770;-1.564;2023-04-20T11:52:43;101607.34;;;16.57;36.22
80118;BME280;69424;48.770;-1.564;2023-04-20T11:55:12;101612.32;;;16.69;36.24
80118;BME280;69424;48.770;-1.564;2023-04-20T11:57:40;101605.17;;;16.75;36.01
80118;BME280;69424;48.770;-1.564;2023-04-20T12:00:08;101608.55;;;16.74;35.80
80118;BME280;69424;48.770;-1.564;2023-04-20T12:02:43;101606.77;;;16.75;36.19
80118;BME280;69424;48.770;-1.564;2023-04-20T12:05:11;101603.75;;;16.70;36.39
80118;BME280;69424;48.770;-1.564;2023-04-20T12:07:41;101594.81;;;16.69;37.48
80118;BME280;69424;48.770;-1.564;2023-04-20T12:10:10;101591.59;;;16.71;38.21
80118;BME280;69424;48.770;-1.564;2023-04-20T12:12:38;101595.86;;;16.75;38.57
80118;BME280;69424;48.770;-1.564;2023-04-20T12:15:09;101591.03;;;16.81;37.97
80118;BME280;69424;48.770;-1.564;2023-04-20T12:17:37;101581.91;;;16.85;37.78
80118;BME280;69424;48.770;-1.564;2023-04-20T12:20:06;101594.44;;;16.88;38.77
80118;BME280;69424;48.770;-1.564;2023-04-20T12:22:35;101592.46;;;16.83;38.26
80118;BME280;69424;48.770;-1.564;2023-04-20T12:25:04;101595.33;;;16.85;38.46
80118;BME280;69424;48.770;-1.564;2023-04-20T12:27:33;101596.02;;;16.95;39.08
80118;BME280;69424;48.770;-1.564;2023-04-20T12:30:02;101600.98;;;17.01;37.57
80118;BME280;69424;48.770;-1.564;2023-04-20T12:32:31;101590.63;;;17.02;38.19
80118;BME280;69424;48.770;-1.564;2023-04-20T12:34:59;101594.36;;;17.07;37.30
80118;BME280;69424;48.770;-1.564;2023-04-20T12:37:28;101590.25;;;17.05;37.09
80118;BME280;69424;48.770;-1.564;2023-04-20T12:39:56;101595.61;;;17.06;36.76
80118;BME280;69424;48.770;-1.564;2023-04-20T12:42:24;101588.47;;;17.05;36.63
80118;BME280;69424;48.770;-1.564;2023-04-20T12:44:53;101590.79;;;17.07;35.67
80118;BME280;69424;48.770;-1.564;2023-04-20T12:47:21;101591.14;;;17.06;36.33
80118;BME280;69424;48.770;-1.564;2023-04-20T12:49:50;101593.30;;;17.05;35.75
80118;BME280;69424;48.770;-1.564;2023-04-20T12:52:18;101591.52;;;17.01;36.14
80118;BME280;69424;48.770;-1.564;2023-04-20T12:54:46;101595.64;;;16.99;35.87
80118;BME280;69424;48.770;-1.564;2023-04-20T12:57:14;101595.13;;;16.93;35.96
80118;BME280;69424;48.770;-1.564;2023-04-20T12:59:42;101591.56;;;16.91;36.81